createdAt,value
2019-03-30T00:01:24.662Z,6.62
2019-03-30T00:03:55.594Z,7.03
2019-03-30T00:06:26.517Z,6.67
2019-03-30T00:08:57.555Z,6.97
2019-03-30T00:11:28.548Z,6.90
2019-03-30T00:13:59.483Z,7.03
2019-03-30T00:16:30.493Z,6.78
2019-03-30T00:19:01.636Z,6.95
2019-03-30T00:21:32.554Z,7.08
2019-03-30T00:24:03.749Z,6.62
2019-03-30T00:26:34.772Z,7.33
2019-03-30T00:29:05.801Z,6.65
2019-03-30T00:31:36.846Z,7.15
2019-03-30T00:34:08.237Z,7.37
2019-03-30T00:36:40.028Z,7.37
2019-03-30T00:39:10.980Z,7.92
2019-03-30T00:41:41.950Z,7.37
2019-03-30T00:44:13.105Z,7.75
2019-03-30T00:46:44.338Z,7.08
2019-03-30T00:49:15.409Z,6.80
2019-03-30T00:51:46.556Z,7.05
2019-03-30T00:54:17.730Z,6.70
2019-03-30T00:56:48.732Z,7.30
2019-03-30T00:59:19.680Z,6.85
2019-03-30T01:01:50.800Z,6.95
2019-03-30T01:04:21.870Z,6.95
2019-03-30T01:06:53.059Z,7.10
2019-03-30T01:09:24.614Z,7.28
2019-03-30T01:11:55.660Z,6.90
2019-03-30T01:14:26.742Z,7.33
2019-03-30T01:16:57.876Z,7.30
2019-03-30T01:19:29.978Z,7.62
2019-03-30T01:22:01.325Z,6.45
2019-03-30T01:24:32.399Z,7.62
2019-03-30T01:27:03.474Z,7.10
2019-03-30T01:29:34.406Z,7.47
2019-03-30T01:32:05.546Z,7.08
2019-03-30T01:34:36.727Z,7.25
2019-03-30T01:37:07.890Z,7.90
2019-03-30T01:39:39.998Z,6.70
2019-03-30T01:42:11.025Z,7.15
2019-03-30T01:44:42.025Z,7.05
2019-03-30T01:47:13.078Z,7.05
2019-03-30T01:49:44.168Z,7.42
2019-03-30T01:52:15.154Z,7.08
2019-03-30T01:54:46.092Z,7.80
2019-03-30T01:57:17.271Z,8.00
2019-03-30T01:59:48.317Z,7.33
2019-03-30T02:02:19.424Z,7.10
2019-03-30T02:04:50.497Z,7.22
2019-03-30T02:07:22.321Z,7.53
2019-03-30T02:09:53.677Z,7.90
2019-03-30T02:12:24.716Z,7.53
2019-03-30T02:14:56.470Z,8.03
2019-03-30T02:17:27.619Z,8.48
2019-03-30T02:19:58.626Z,8.10
2019-03-30T02:22:30.718Z,8.10
2019-03-30T02:25:03.799Z,7.62
2019-03-30T02:27:34.879Z,8.48
2019-03-30T02:30:06.278Z,7.62
2019-03-30T02:32:37.538Z,7.83
2019-03-30T02:35:08.667Z,7.28
2019-03-30T02:37:39.725Z,7.58
2019-03-30T02:40:11.101Z,7.03
2019-03-30T02:42:42.637Z,7.53
2019-03-30T02:45:13.513Z,7.80
2019-03-30T02:47:44.937Z,7.33
2019-03-30T02:50:15.903Z,8.25
2019-03-30T02:52:47.028Z,7.08
2019-03-30T02:55:17.962Z,7.42
2019-03-30T02:57:49.025Z,6.90
2019-03-30T03:00:20.291Z,7.35
2019-03-30T03:02:51.173Z,7.00
2019-03-30T03:05:22.245Z,7.20
2019-03-30T03:07:53.175Z,8.13
2019-03-30T03:10:24.021Z,7.05
2019-03-30T03:12:55.380Z,7.60
2019-03-30T03:15:26.608Z,8.55
2019-03-30T03:17:57.754Z,8.03
2019-03-30T03:20:28.994Z,8.10
2019-03-30T03:23:00.130Z,7.65
2019-03-30T03:25:31.144Z,8.93
2019-03-30T03:28:02.090Z,7.85
2019-03-30T03:30:33.388Z,8.65
2019-03-30T03:33:04.851Z,8.33
2019-03-30T03:35:36.068Z,7.45
2019-03-30T03:38:07.157Z,7.97
2019-03-30T03:40:38.153Z,8.20
2019-03-30T03:43:09.192Z,8.20
2019-03-30T03:45:40.286Z,7.58
2019-03-30T03:48:11.813Z,7.67
2019-03-30T03:50:43.819Z,8.30
2019-03-30T03:53:16.375Z,8.80
2019-03-30T03:55:47.420Z,8.70
2019-03-30T03:58:18.997Z,8.75
2019-03-30T04:00:52.411Z,8.15
2019-03-30T04:03:24.172Z,8.20
2019-03-30T04:05:59.003Z,7.60
2019-03-30T04:08:32.053Z,7.90
2019-03-30T04:11:03.958Z,8.00
2019-03-30T04:13:37.081Z,8.23
2019-03-30T04:16:08.611Z,8.20
2019-03-30T04:18:39.898Z,7.85
2019-03-30T04:21:11.093Z,9.65
2019-03-30T04:23:42.409Z,10.00
2019-03-30T04:26:13.749Z,8.68
2019-03-30T04:28:44.830Z,7.90
2019-03-30T04:31:16.115Z,8.35
2019-03-30T04:33:48.971Z,8.58
2019-03-30T04:36:20.147Z,8.90
2019-03-30T04:38:51.272Z,11.03
2019-03-30T04:41:22.349Z,13.88
2019-03-30T04:43:54.241Z,16.65
2019-03-30T04:46:25.230Z,20.05
2019-03-30T04:48:56.220Z,25.20
2019-03-30T04:51:27.314Z,31.52
2019-03-30T04:53:58.403Z,29.65
2019-03-30T04:56:29.539Z,29.32
2019-03-30T04:59:00.671Z,24.65
2019-03-30T05:01:31.685Z,20.62
2019-03-30T05:04:03.101Z,17.30
2019-03-30T05:06:34.092Z,15.58
2019-03-30T05:09:06.439Z,13.72
2019-03-30T05:11:37.843Z,13.93
2019-03-30T05:14:09.097Z,12.35
2019-03-30T05:16:40.120Z,11.10
2019-03-30T05:19:11.299Z,9.98
2019-03-30T05:21:42.255Z,9.53
2019-03-30T05:24:13.199Z,9.13
2019-03-30T05:26:44.238Z,9.93
2019-03-30T05:29:16.303Z,9.73
2019-03-30T05:31:47.309Z,10.28
2019-03-30T05:34:18.291Z,9.65
2019-03-30T05:36:51.491Z,10.53
2019-03-30T05:39:22.638Z,9.83
2019-03-30T05:41:53.689Z,10.00
2019-03-30T05:44:24.751Z,9.43
2019-03-30T05:46:57.778Z,9.48
2019-03-30T05:49:28.900Z,9.20
2019-03-30T05:52:00.010Z,9.25
2019-03-30T05:54:31.056Z,9.30
2019-03-30T05:57:02.126Z,9.05
2019-03-30T05:59:33.321Z,9.88
2019-03-30T06:02:04.447Z,9.25
2019-03-30T06:04:35.678Z,9.50
2019-03-30T06:07:06.750Z,9.50
2019-03-30T06:09:37.800Z,10.48
2019-03-30T06:12:09.103Z,9.75
2019-03-30T06:14:40.250Z,9.93
2019-03-30T06:17:11.364Z,10.60
2019-03-30T06:19:42.653Z,10.10
2019-03-30T06:22:14.021Z,9.40
2019-03-30T06:24:46.052Z,9.40
2019-03-30T06:27:17.196Z,9.83
2019-03-30T06:30:16.634Z,9.43
2019-03-30T06:32:48.299Z,9.03
2019-03-30T06:35:19.430Z,9.88
2019-03-30T06:37:50.626Z,9.45
2019-03-30T06:40:21.678Z,9.78
2019-03-30T06:42:53.065Z,9.48
2019-03-30T06:45:24.203Z,8.93
2019-03-30T06:47:55.621Z,9.48
2019-03-30T06:50:26.812Z,10.40
2019-03-30T06:52:58.919Z,11.00
2019-03-30T06:55:30.275Z,11.08
2019-03-30T06:58:01.521Z,12.10
2019-03-30T07:00:38.948Z,11.57
2019-03-30T07:03:10.116Z,12.18
2019-03-30T07:05:42.150Z,10.93
2019-03-30T07:08:15.061Z,11.15
2019-03-30T07:10:47.109Z,11.65
2019-03-30T07:13:18.380Z,10.88
2019-03-30T07:15:54.532Z,11.75
2019-03-30T07:18:27.056Z,11.88
2019-03-30T07:20:58.176Z,11.60
2019-03-30T07:23:29.372Z,11.43
2019-03-30T07:26:00.541Z,11.00
2019-03-30T07:28:31.720Z,11.03
2019-03-30T07:31:03.094Z,11.38
2019-03-30T07:33:34.153Z,11.55
2019-03-30T07:36:05.587Z,11.93
2019-03-30T07:38:36.809Z,11.03
2019-03-30T07:41:07.858Z,12.70
2019-03-30T07:43:38.814Z,12.47
2019-03-30T07:46:10.501Z,12.00
2019-03-30T07:48:41.896Z,12.00
2019-03-30T07:51:13.179Z,12.05
2019-03-30T07:53:45.032Z,11.10
2019-03-30T07:56:17.334Z,11.73
2019-03-30T07:58:49.349Z,10.70
2019-03-30T08:01:20.589Z,11.93
2019-03-30T08:03:52.013Z,12.15
2019-03-30T08:06:23.259Z,12.07
2019-03-30T08:08:54.370Z,12.37
2019-03-30T08:11:25.485Z,13.13
2019-03-30T08:13:56.531Z,12.55
2019-03-30T08:16:27.699Z,12.13
2019-03-30T08:19:00.354Z,12.15
2019-03-30T08:21:31.585Z,12.45
2019-03-30T08:24:06.216Z,11.68
2019-03-30T08:26:37.209Z,12.70
2019-03-30T08:29:08.426Z,12.60
2019-03-30T08:31:39.622Z,12.35
2019-03-30T08:34:10.562Z,13.05
2019-03-30T08:36:41.618Z,12.55
2019-03-30T08:39:12.698Z,13.08
2019-03-30T08:41:43.687Z,12.33
2019-03-30T08:44:14.713Z,11.33
2019-03-30T08:46:45.768Z,12.82
2019-03-30T08:49:16.839Z,13.45
2019-03-30T08:51:48.036Z,15.40
2019-03-30T08:54:19.077Z,13.68
2019-03-30T08:56:50.132Z,13.50
2019-03-30T08:59:21.131Z,12.33
2019-03-30T09:01:52.649Z,13.45
2019-03-30T09:04:23.575Z,12.98
2019-03-30T09:06:54.640Z,12.13
2019-03-30T09:09:25.858Z,13.58
2019-03-30T09:11:56.904Z,12.90
2019-03-30T09:14:30.928Z,13.18
2019-03-30T09:17:02.240Z,12.45
2019-03-30T09:19:33.498Z,13.28
2019-03-30T09:22:04.819Z,13.58
2019-03-30T09:24:36.014Z,13.30
2019-03-30T09:27:08.071Z,13.50
2019-03-30T09:29:40.035Z,12.53
2019-03-30T09:32:14.716Z,12.35
2019-03-30T09:34:45.055Z,12.75
2019-03-30T09:37:16.166Z,12.35
2019-03-30T09:39:47.249Z,11.95
2019-03-30T09:42:18.533Z,13.55
2019-03-30T09:44:50.751Z,12.18
2019-03-30T09:47:22.371Z,13.70
2019-03-30T09:49:53.658Z,13.93
2019-03-30T09:52:24.644Z,13.32
2019-03-30T09:54:55.747Z,12.55
2019-03-30T09:57:27.928Z,13.53
2019-03-30T09:59:59.048Z,13.25
2019-03-30T10:02:30.353Z,14.28
2019-03-30T10:05:01.557Z,11.93
2019-03-30T10:07:33.518Z,12.20
2019-03-30T10:10:04.846Z,13.35
2019-03-30T10:12:36.881Z,12.13
2019-03-30T10:15:08.708Z,12.00
2019-03-30T10:17:39.824Z,11.63
2019-03-30T10:20:10.946Z,10.45
2019-03-30T10:22:42.372Z,12.13
2019-03-30T10:25:14.781Z,10.78
2019-03-30T10:27:45.965Z,11.85
2019-03-30T10:30:17.011Z,11.38
2019-03-30T10:32:48.163Z,11.18
2019-03-30T10:35:19.305Z,11.88
2019-03-30T10:37:50.517Z,11.48
2019-03-30T10:40:21.855Z,10.72
2019-03-30T10:42:52.810Z,10.60
2019-03-30T10:45:23.773Z,11.30
2019-03-30T10:47:54.995Z,11.08
2019-03-30T10:50:26.057Z,11.22
2019-03-30T10:52:57.229Z,11.75
2019-03-30T10:55:29.265Z,10.85
2019-03-30T10:58:00.305Z,9.68
2019-03-30T11:00:38.785Z,9.73
2019-03-30T11:03:11.141Z,10.30
2019-03-30T11:05:42.311Z,10.03
2019-03-30T11:08:13.479Z,10.05
2019-03-30T11:10:45.116Z,9.68
2019-03-30T11:13:16.138Z,9.90
2019-03-30T11:15:47.462Z,10.70
2019-03-30T11:18:18.630Z,11.73
2019-03-30T11:20:49.760Z,10.20
2019-03-30T11:23:20.859Z,9.38
2019-03-30T11:25:51.997Z,9.43
2019-03-30T11:28:23.171Z,9.53
2019-03-30T11:30:54.280Z,9.98
2019-03-30T11:33:25.360Z,10.50
2019-03-30T11:35:56.554Z,9.40
2019-03-30T11:38:27.651Z,10.32
2019-03-30T11:40:58.824Z,10.68
2019-03-30T11:43:29.930Z,10.23
2019-03-30T11:46:01.171Z,10.40
2019-03-30T11:48:32.348Z,10.68
2019-03-30T11:51:03.416Z,10.88
2019-03-30T11:53:34.467Z,9.50
2019-03-30T11:56:05.928Z,10.13
2019-03-30T11:58:36.966Z,9.65
2019-03-30T12:01:08.038Z,9.85
2019-03-30T12:03:39.014Z,9.55
2019-03-30T12:06:10.090Z,9.03
2019-03-30T12:08:42.148Z,9.95
2019-03-30T12:11:13.258Z,9.65
2019-03-30T12:13:44.380Z,9.18
2019-03-30T12:16:15.471Z,8.90
2019-03-30T12:18:46.563Z,9.55
2019-03-30T12:21:17.832Z,8.63
2019-03-30T12:23:48.818Z,8.10
2019-03-30T12:26:19.976Z,8.40
2019-03-30T12:28:51.017Z,8.23
2019-03-30T12:31:22.171Z,8.75
2019-03-30T12:33:53.402Z,8.25
2019-03-30T12:36:24.406Z,7.65
2019-03-30T12:38:55.601Z,8.75
2019-03-30T12:41:26.668Z,9.15
2019-03-30T12:43:57.801Z,6.60
2019-03-30T12:46:29.043Z,6.70
2019-03-30T12:48:59.996Z,7.50
2019-03-30T12:51:31.292Z,7.00
2019-03-30T12:54:02.783Z,5.08
2019-03-30T12:56:35.004Z,6.28
2019-03-30T12:59:06.190Z,6.33
2019-03-30T13:01:37.168Z,5.22
2019-03-30T13:04:08.210Z,5.03
2019-03-30T13:06:39.587Z,6.40
2019-03-30T13:09:10.658Z,6.33
2019-03-30T13:11:42.985Z,3.98
2019-03-30T13:14:14.575Z,4.75
2019-03-30T13:16:46.611Z,5.40
2019-03-30T13:19:17.591Z,4.30
2019-03-30T13:21:52.897Z,3.20
2019-03-30T13:24:22.712Z,4.35
2019-03-30T13:26:53.691Z,4.42
2019-03-30T13:29:24.718Z,4.97
2019-03-30T13:31:55.906Z,4.28
2019-03-30T13:34:26.858Z,5.70
2019-03-30T13:36:57.776Z,5.00
2019-03-30T13:39:29.626Z,5.28
2019-03-30T13:42:00.867Z,5.92
2019-03-30T13:44:31.924Z,5.92
2019-03-30T13:47:03.024Z,5.55
2019-03-30T13:49:33.976Z,5.45
2019-03-30T13:52:04.993Z,5.78
2019-03-30T13:54:38.575Z,5.65
2019-03-30T13:57:09.093Z,5.90
2019-03-30T13:59:41.202Z,6.00
2019-03-30T14:02:12.318Z,5.97
2019-03-30T14:04:43.403Z,5.20
2019-03-30T14:07:14.323Z,5.30
2019-03-30T14:09:45.514Z,7.55
2019-03-30T14:12:16.637Z,4.87
2019-03-30T14:14:47.661Z,5.10
2019-03-30T14:17:20.118Z,5.28
2019-03-30T14:19:51.483Z,5.55
2019-03-30T14:22:22.422Z,5.08
2019-03-30T14:24:53.534Z,4.60
2019-03-30T14:27:24.487Z,5.20
2019-03-30T14:29:55.616Z,4.47
2019-03-30T14:32:26.620Z,4.87
2019-03-30T14:34:57.720Z,4.97
2019-03-30T14:37:28.739Z,5.05
2019-03-30T14:39:59.744Z,3.92
2019-03-30T14:42:30.814Z,4.58
2019-03-30T14:45:02.101Z,4.25
2019-03-30T14:47:33.246Z,4.83
2019-03-30T14:50:04.581Z,4.92
2019-03-30T14:52:35.606Z,4.12
2019-03-30T14:55:07.461Z,5.10
2019-03-30T14:57:38.634Z,4.60
2019-03-30T15:00:10.637Z,4.28
2019-03-30T15:02:41.866Z,4.47
2019-03-30T15:05:13.798Z,4.87
2019-03-30T15:07:44.723Z,3.95
2019-03-30T15:10:16.348Z,3.70
2019-03-30T15:12:47.478Z,4.05
2019-03-30T15:15:18.635Z,4.35
2019-03-30T15:17:49.743Z,3.98
2019-03-30T15:20:20.795Z,4.20
2019-03-30T15:22:51.831Z,4.03
2019-03-30T15:25:23.203Z,4.37
2019-03-30T15:27:54.275Z,4.83
2019-03-30T15:30:25.170Z,4.37
2019-03-30T15:32:56.308Z,4.55
2019-03-30T15:35:27.234Z,4.05
2019-03-30T15:37:58.108Z,3.80
2019-03-30T15:40:32.510Z,4.08
2019-03-30T15:43:03.490Z,4.47
2019-03-30T15:45:34.545Z,4.25
2019-03-30T15:48:05.769Z,4.40
2019-03-30T15:50:36.754Z,4.30
2019-03-30T15:53:09.413Z,4.17
2019-03-30T15:55:40.506Z,3.95
2019-03-30T15:58:11.724Z,3.83
2019-03-30T16:00:42.680Z,4.15
2019-03-30T16:03:13.854Z,4.25
2019-03-30T16:05:44.876Z,4.40
2019-03-30T16:08:15.879Z,4.78
2019-03-30T16:10:46.937Z,4.28
2019-03-30T16:13:17.941Z,3.98
2019-03-30T16:15:49.033Z,3.98
2019-03-30T16:18:20.298Z,3.77
2019-03-30T16:20:51.300Z,4.37
2019-03-30T16:23:22.424Z,3.62
2019-03-30T16:25:53.532Z,4.10
2019-03-30T16:28:24.680Z,4.37
2019-03-30T16:30:55.758Z,4.17
2019-03-30T16:33:27.043Z,4.28
2019-03-30T16:35:58.070Z,3.67
2019-03-30T16:38:28.935Z,3.75
2019-03-30T16:40:59.953Z,4.40
2019-03-30T16:43:31.069Z,4.25
2019-03-30T16:46:02.019Z,4.17
2019-03-30T16:48:33.180Z,3.87
2019-03-30T16:51:04.200Z,3.80
2019-03-30T16:53:35.755Z,3.95
2019-03-30T16:56:07.130Z,3.98
2019-03-30T16:58:38.189Z,4.20
2019-03-30T17:01:09.391Z,4.22
2019-03-30T17:03:40.733Z,4.25
2019-03-30T17:06:11.796Z,4.17
2019-03-30T17:08:42.792Z,4.03
2019-03-30T17:11:14.414Z,4.12
2019-03-30T17:13:45.543Z,3.60
2019-03-30T17:16:16.695Z,3.62
2019-03-30T17:18:47.735Z,3.27
2019-03-30T17:21:18.758Z,3.80
2019-03-30T17:23:49.930Z,3.83
2019-03-30T17:26:21.056Z,3.95
2019-03-30T17:28:52.137Z,3.40
2019-03-30T17:31:23.487Z,3.42
2019-03-30T17:33:54.793Z,3.80
2019-03-30T17:36:25.941Z,3.80
2019-03-30T17:38:56.978Z,3.90
2019-03-30T17:41:28.016Z,3.80
2019-03-30T17:43:59.263Z,3.37
2019-03-30T17:46:30.385Z,3.75
2019-03-30T17:49:01.515Z,3.45
2019-03-30T17:51:35.132Z,3.35
2019-03-30T17:54:06.181Z,3.50
2019-03-30T17:56:37.282Z,4.85
2019-03-30T17:59:08.388Z,5.10
2019-03-30T18:01:39.529Z,7.40
2019-03-30T18:04:10.600Z,9.08
2019-03-30T18:06:42.823Z,9.13
2019-03-30T18:09:13.854Z,10.53
2019-03-30T18:11:45.046Z,23.35
2019-03-30T18:14:16.536Z,23.20
2019-03-30T18:16:48.899Z,19.60
2019-03-30T18:19:20.034Z,15.98
2019-03-30T18:21:51.233Z,13.78
2019-03-30T18:24:22.428Z,23.07
2019-03-30T18:26:53.636Z,21.37
2019-03-30T18:29:24.729Z,34.92
2019-03-30T18:31:55.910Z,37.48
2019-03-30T18:34:27.767Z,20.52
2019-03-30T18:36:59.029Z,20.27
2019-03-30T18:39:31.597Z,15.68
2019-03-30T18:42:02.773Z,11.45
2019-03-30T18:44:33.885Z,10.78
2019-03-30T18:47:04.926Z,10.20
2019-03-30T18:49:36.009Z,11.40
2019-03-30T18:52:07.389Z,9.38
2019-03-30T18:54:38.372Z,8.75
2019-03-30T18:57:12.534Z,8.20
2019-03-30T18:59:43.700Z,9.90
2019-03-30T19:02:14.710Z,8.13
2019-03-30T19:04:45.681Z,7.50
2019-03-30T19:07:17.075Z,8.33
2019-03-30T19:09:48.219Z,5.83
2019-03-30T19:12:25.684Z,6.78
2019-03-30T19:14:56.681Z,7.28
2019-03-30T19:17:30.216Z,6.15
2019-03-30T19:20:01.374Z,7.05
2019-03-30T19:22:33.403Z,11.85
2019-03-30T19:25:04.599Z,11.05
2019-03-30T19:27:36.670Z,8.85
2019-03-30T19:30:08.658Z,8.20
2019-03-30T19:33:04.304Z,12.45
2019-03-30T19:35:38.309Z,7.78
2019-03-30T19:38:11.994Z,8.90
2019-03-30T19:40:44.049Z,9.80
2019-03-30T19:43:15.131Z,7.75
2019-03-30T19:45:46.186Z,7.20
2019-03-30T19:48:17.285Z,6.10
2019-03-30T19:50:48.403Z,7.28
2019-03-30T19:53:19.555Z,6.58
2019-03-30T19:55:50.535Z,6.58
2019-03-30T19:58:21.775Z,5.92
2019-03-30T20:00:52.919Z,5.70
2019-03-30T20:03:23.846Z,5.80
2019-03-30T20:05:54.950Z,6.78
2019-03-30T20:08:26.317Z,8.70
2019-03-30T20:10:57.299Z,7.85
2019-03-30T20:13:28.465Z,5.90
2019-03-30T20:15:59.423Z,5.80
2019-03-30T20:18:30.734Z,5.95
2019-03-30T20:21:01.749Z,4.85
2019-03-30T20:23:33.327Z,5.05
2019-03-30T20:26:04.287Z,5.03
2019-03-30T20:28:35.443Z,5.00
2019-03-30T20:31:06.547Z,4.47
2019-03-30T20:33:37.804Z,4.65
2019-03-30T20:36:08.761Z,4.60
2019-03-30T20:38:39.815Z,5.22
2019-03-30T20:41:10.851Z,5.10
2019-03-30T20:43:41.894Z,4.28
2019-03-30T20:46:14.548Z,4.97
2019-03-30T20:48:45.731Z,5.40
2019-03-30T20:51:16.664Z,4.60
2019-03-30T20:53:47.711Z,4.50
2019-03-30T20:56:18.868Z,4.65
2019-03-30T20:58:49.972Z,4.67
2019-03-30T21:01:20.950Z,4.45
2019-03-30T21:03:52.338Z,4.20
2019-03-30T21:06:23.823Z,3.87
2019-03-30T21:08:57.220Z,4.22
2019-03-30T21:11:28.301Z,3.58
2019-03-30T21:13:59.575Z,4.25
2019-03-30T21:16:30.740Z,4.05
2019-03-30T21:19:02.268Z,4.42
2019-03-30T21:21:33.828Z,4.12
2019-03-30T21:24:04.986Z,3.92
2019-03-30T21:26:35.989Z,4.20
2019-03-30T21:29:07.241Z,4.10
2019-03-30T21:31:38.475Z,4.30
2019-03-30T21:34:09.508Z,4.12
2019-03-30T21:36:41.508Z,4.58
2019-03-30T21:39:12.767Z,4.25
2019-03-30T21:41:44.072Z,4.28
2019-03-30T21:44:22.040Z,4.58
2019-03-30T21:46:48.235Z,4.45
2019-03-30T21:49:19.318Z,4.65
2019-03-30T21:51:50.623Z,4.37
2019-03-30T21:54:21.943Z,5.28
2019-03-30T21:56:52.905Z,11.05
2019-03-30T21:59:24.140Z,4.97
2019-03-30T22:01:55.157Z,15.25
2019-03-30T22:04:28.031Z,6.75
2019-03-30T22:07:00.325Z,6.58
2019-03-30T22:09:31.722Z,5.92
2019-03-30T22:12:02.827Z,5.35
2019-03-30T22:14:33.990Z,6.10
2019-03-30T22:17:05.022Z,4.75
2019-03-30T22:19:36.304Z,5.17
2019-03-30T22:22:07.273Z,4.67
2019-03-30T22:24:40.122Z,5.15
2019-03-30T22:27:11.190Z,4.72
2019-03-30T22:29:42.144Z,5.28
2019-03-30T22:32:13.091Z,5.37
2019-03-30T22:34:44.600Z,4.87
2019-03-30T22:37:15.579Z,4.80
2019-03-30T22:39:46.939Z,4.87
2019-03-30T22:42:18.074Z,4.80
2019-03-30T22:44:49.234Z,4.47
2019-03-30T22:47:20.152Z,4.17
2019-03-30T22:49:51.291Z,4.45
2019-03-30T22:52:22.286Z,4.45
2019-03-30T22:54:53.642Z,4.42
2019-03-30T22:57:25.668Z,5.10
2019-03-30T22:59:56.718Z,5.17
2019-03-30T23:02:27.682Z,4.83
2019-03-30T23:04:58.705Z,4.50
2019-03-30T23:07:29.589Z,7.50
2019-03-30T23:10:00.809Z,5.78
2019-03-30T23:12:32.882Z,9.93
2019-03-30T23:15:04.086Z,10.20
2019-03-30T23:17:35.126Z,24.95
2019-03-30T23:20:07.601Z,13.65
2019-03-30T23:22:38.737Z,6.55
2019-03-30T23:25:10.037Z,8.20
2019-03-30T23:27:41.096Z,6.17
2019-03-30T23:30:12.254Z,5.05
2019-03-30T23:32:43.377Z,4.67
2019-03-30T23:35:14.486Z,5.55
2019-03-30T23:37:45.617Z,4.75
2019-03-30T23:40:16.676Z,4.83
2019-03-30T23:42:47.804Z,4.12
2019-03-30T23:45:18.826Z,4.12
2019-03-30T23:47:50.011Z,4.65
2019-03-30T23:50:21.294Z,4.22
2019-03-30T23:52:52.422Z,4.35
2019-03-30T23:55:23.439Z,4.15
2019-03-30T23:57:54.450Z,4.12
